createdAt,value
2023-05-08T00:03:24.121Z,65819.97
2023-05-08T00:08:29.472Z,65826.91
2023-05-08T00:13:33.599Z,65757.09
2023-05-08T00:18:38.718Z,65769.19
2023-05-08T00:23:44.010Z,65734.22
2023-05-08T00:28:47.929Z,65726.19
2023-05-08T00:33:51.975Z,65760.81
2023-05-08T00:38:57.381Z,65791.28
2023-05-08T00:44:01.318Z,65822.72
2023-05-08T00:49:06.959Z,65798.88
2023-05-08T00:54:12.841Z,65678.38
2023-05-08T00:59:19.129Z,65698.13
2023-05-08T01:04:26.683Z,65730.91
2023-05-08T01:09:32.169Z,65779.41
2023-05-08T01:14:49.472Z,65759.84
2023-05-08T01:20:05.152Z,65842.59
2023-05-08T01:25:49.503Z,65772.47
2023-05-08T01:31:11.733Z,65791.38
2023-05-08T01:36:25.152Z,65751.56
2023-05-08T01:41:32.198Z,65795.38
2023-05-08T01:46:36.380Z,65712.84
2023-05-08T01:51:47.221Z,65717.56
2023-05-08T01:56:55.464Z,65734.09
2023-05-08T02:02:02.040Z,65737.22
2023-05-08T02:07:08.617Z,65707.31
2023-05-08T02:12:14.439Z,65762.13
2023-05-08T02:17:19.184Z,65721.91
2023-05-08T02:22:25.508Z,65709.47
2023-05-08T02:27:31.555Z,65729.75
2023-05-08T02:32:36.287Z,65701.97
2023-05-08T02:37:43.800Z,65722.28
2023-05-08T02:42:49.176Z,65678.69
2023-05-08T02:48:05.516Z,65678.38
2023-05-08T02:53:17.317Z,65660.88
2023-05-08T02:58:26.376Z,65631.06
2023-05-08T03:03:40.403Z,65633.91
2023-05-08T03:08:49.634Z,65718.88
2023-05-08T03:13:58.407Z,65666.84
2023-05-08T03:19:06.807Z,65667.81
2023-05-08T03:24:13.447Z,65659.59
2023-05-08T03:29:19.788Z,65724.50
2023-05-08T03:34:25.755Z,65732.94
2023-05-08T03:39:31.448Z,65669.41
2023-05-08T03:44:35.972Z,65738.28
2023-05-08T03:49:40.551Z,65745.22
2023-05-08T03:54:46.270Z,65724.59
2023-05-08T03:59:58.360Z,65752.19
2023-05-08T04:05:11.694Z,65675.38
2023-05-08T04:10:25.744Z,65739.38
2023-05-08T04:15:32.645Z,65657.78
2023-05-08T04:20:41.684Z,65696.00
2023-05-08T04:25:50.109Z,65698.97
2023-05-08T04:30:55.161Z,65649.75
2023-05-08T04:36:05.185Z,65705.19
2023-05-08T04:41:15.065Z,65665.03
2023-05-08T04:46:20.167Z,65685.53
2023-05-08T04:51:24.306Z,65648.59
2023-05-08T04:56:30.038Z,65658.41
2023-05-08T05:01:34.381Z,65658.09
2023-05-08T05:06:38.970Z,65668.00
2023-05-08T05:11:44.767Z,65664.28
2023-05-08T05:16:48.957Z,65705.72
2023-05-08T05:21:53.051Z,65730.81
2023-05-08T05:26:58.677Z,65653.16
2023-05-08T05:32:03.307Z,65729.41
2023-05-08T05:37:08.017Z,65716.06
2023-05-08T05:42:14.091Z,65666.06
2023-05-08T05:47:18.576Z,65684.88
2023-05-08T05:52:23.183Z,65701.97
2023-05-08T05:57:28.838Z,65802.16
2023-05-08T06:02:34.019Z,65784.41
2023-05-08T06:07:38.418Z,65831.91
2023-05-08T06:12:44.095Z,65806.69
2023-05-08T06:17:48.473Z,65783.34
2023-05-08T06:22:52.465Z,65799.22
2023-05-08T06:27:57.928Z,65828.06
2023-05-08T06:33:02.035Z,65797.16
2023-05-08T06:38:06.375Z,65780.06
2023-05-08T06:43:12.504Z,65783.16
2023-05-08T06:48:16.624Z,65862.91
2023-05-08T06:53:20.498Z,65884.28
2023-05-08T06:58:26.169Z,65924.41
2023-05-08T07:03:30.184Z,65925.56
2023-05-08T07:08:34.077Z,65901.94
2023-05-08T07:13:39.645Z,65888.47
2023-05-08T07:18:43.661Z,65911.13
2023-05-08T07:23:47.980Z,65977.28
2023-05-08T07:28:54.322Z,65983.69
2023-05-08T07:33:58.255Z,65966.13
2023-05-08T07:39:02.100Z,65988.50
2023-05-08T07:44:07.399Z,66062.50
2023-05-08T07:49:11.298Z,66012.69
2023-05-08T07:54:15.304Z,66021.88
2023-05-08T07:59:20.638Z,65974.69
2023-05-08T08:04:24.838Z,66012.69
2023-05-08T08:09:29.005Z,66126.22
2023-05-08T08:14:34.466Z,66097.28
2023-05-08T08:19:38.453Z,66148.72
2023-05-08T08:24:42.389Z,66235.47
2023-05-08T08:29:47.999Z,66162.22
2023-05-08T08:34:52.077Z,66093.63
2023-05-08T08:39:56.167Z,66095.06
2023-05-08T08:45:01.955Z,66170.25
2023-05-08T08:50:07.865Z,66215.19
2023-05-08T08:55:16.679Z,66316.09
2023-05-08T09:00:23.880Z,66224.81
2023-05-08T09:05:28.035Z,66143.81
2023-05-08T09:10:32.431Z,66160.06
2023-05-08T09:15:38.123Z,66181.50
2023-05-08T09:20:42.616Z,66241.88
2023-05-08T09:25:47.632Z,66220.53
2023-05-08T09:30:56.993Z,66253.00
2023-05-08T09:36:01.146Z,66284.81
2023-05-08T09:41:12.313Z,66238.75
2023-05-08T09:46:25.859Z,66239.41
2023-05-08T09:51:31.332Z,66329.97
2023-05-08T09:56:36.672Z,66289.81
2023-05-08T10:01:42.548Z,66194.34
2023-05-08T10:06:56.689Z,66157.38
2023-05-08T10:12:00.999Z,66141.22
2023-05-08T10:17:11.172Z,66209.72
2023-05-08T10:22:20.206Z,66285.34
2023-05-08T10:27:36.016Z,66141.22
2023-05-08T10:32:45.607Z,66096.41
2023-05-08T10:37:50.836Z,66137.31
2023-05-08T10:42:55.498Z,66259.34
2023-05-08T10:48:06.469Z,66274.25
2023-05-08T10:53:17.776Z,66380.94
2023-05-08T10:58:32.813Z,66285.97
2023-05-08T11:03:42.771Z,66375.13
2023-05-08T11:08:49.809Z,66375.56
2023-05-08T11:13:57.320Z,66255.31
2023-05-08T11:19:22.203Z,66235.63
2023-05-08T11:24:36.015Z,66266.75
2023-05-08T11:29:40.235Z,66274.19
2023-05-08T11:34:50.041Z,66297.31
2023-05-08T11:39:54.335Z,66412.34
2023-05-08T11:45:05.515Z,66602.75
2023-05-08T11:50:12.906Z,66524.94
2023-05-08T11:55:19.651Z,66431.50
2023-05-08T12:00:24.100Z,66485.66
2023-05-08T12:05:29.880Z,66461.41
2023-05-08T12:10:34.039Z,66440.56
2023-05-08T12:15:39.998Z,66462.09
2023-05-08T12:20:45.919Z,66520.03
2023-05-08T12:25:55.418Z,66462.66
2023-05-08T12:31:00.001Z,66486.19
2023-05-08T12:36:06.920Z,66411.38
2023-05-08T12:41:11.309Z,66431.31
2023-05-08T12:46:17.849Z,66486.28
2023-05-08T12:51:31.164Z,66437.78
2023-05-08T12:56:35.216Z,66507.31
2023-05-08T13:01:39.397Z,66599.06
2023-05-08T13:06:56.088Z,66540.00
2023-05-08T13:12:00.883Z,66521.19
2023-05-08T13:17:04.966Z,66466.25
2023-05-08T13:22:10.521Z,66691.66
2023-05-08T13:27:14.821Z,66679.94
2023-05-08T13:32:19.080Z,66422.28
2023-05-08T13:37:24.671Z,66285.97
2023-05-08T13:42:28.784Z,66245.84
2023-05-08T13:47:33.451Z,66320.75
2023-05-08T13:52:39.239Z,66382.53
2023-05-08T13:57:43.168Z,66383.16
2023-05-08T14:02:48.828Z,66430.34
2023-05-08T14:07:55.729Z,66441.53
2023-05-08T14:12:59.843Z,66468.38
2023-05-08T14:18:03.953Z,66396.66
2023-05-08T14:23:09.507Z,66473.38
2023-05-08T14:28:13.625Z,66457.25
2023-05-08T14:33:19.324Z,66490.47
2023-05-08T14:38:25.113Z,66568.34
2023-05-08T14:43:29.312Z,66574.25
2023-05-08T14:48:33.359Z,66471.16
2023-05-08T14:53:39.050Z,66371.44
2023-05-08T14:58:43.034Z,66286.50
2023-05-08T15:03:53.243Z,66262.28
2023-05-08T15:08:59.273Z,66295.00
2023-05-08T15:14:03.741Z,66361.00
2023-05-08T15:19:09.641Z,66373.97
2023-05-08T15:24:15.685Z,66357.94
2023-05-08T15:29:23.822Z,66382.63
2023-05-08T15:34:32.469Z,66311.09
2023-05-08T15:39:39.409Z,66333.63
2023-05-08T15:44:54.675Z,66452.91
2023-05-08T15:49:59.409Z,66516.34
2023-05-08T15:55:05.231Z,66427.81
2023-05-08T16:00:09.732Z,66339.25
2023-05-08T16:05:14.145Z,66317.16
2023-05-08T16:10:20.154Z,66245.31
2023-05-08T16:15:24.343Z,66260.88
2023-05-08T16:20:33.558Z,66273.19
2023-05-08T16:25:41.229Z,66240.50
2023-05-08T16:30:45.482Z,66269.53
2023-05-08T16:35:50.686Z,66217.31
2023-05-08T16:41:02.180Z,66168.53
2023-05-08T16:46:07.517Z,66159.00
2023-05-08T16:51:11.765Z,66164.78
2023-05-08T16:56:17.131Z,66241.88
2023-05-08T17:01:21.080Z,66180.31
2023-05-08T17:06:27.816Z,66230.19
2023-05-08T17:11:33.120Z,66234.47
2023-05-08T17:16:38.848Z,66220.53
2023-05-08T17:21:43.331Z,66198.56
2023-05-08T17:26:50.532Z,66279.63
2023-05-08T17:32:04.867Z,66271.50
2023-05-08T17:37:09.006Z,66202.75
2023-05-08T17:42:14.361Z,66220.88
2023-05-08T17:47:18.289Z,66202.41
2023-05-08T17:52:22.839Z,66187.22
2023-05-08T17:57:28.314Z,66185.16
2023-05-08T18:02:32.542Z,66135.94
2023-05-08T18:07:36.983Z,66133.72
2023-05-08T18:12:46.505Z,66107.38
2023-05-08T18:17:54.759Z,66112.28
2023-05-08T18:22:58.901Z,66084.97
2023-05-08T18:28:04.170Z,66095.59
2023-05-08T18:33:08.230Z,66090.34
2023-05-08T18:38:12.314Z,66131.59
2023-05-08T18:43:17.677Z,66103.28
2023-05-08T18:48:21.856Z,66142.28
2023-05-08T18:53:25.865Z,66142.28
2023-05-08T18:58:31.315Z,66162.75
2023-05-08T19:03:35.251Z,66167.47
2023-05-08T19:08:39.147Z,66100.50
2023-05-08T19:13:44.498Z,66098.91
2023-05-08T19:18:48.389Z,66072.03
2023-05-08T19:23:52.351Z,66081.84
2023-05-08T19:28:57.612Z,66108.44
2023-05-08T19:34:01.554Z,66090.88
2023-05-08T19:39:05.573Z,66092.28
2023-05-08T19:44:10.871Z,66057.75
2023-05-08T19:49:17.354Z,66056.59
2023-05-08T19:54:21.347Z,66029.38
2023-05-08T19:59:26.797Z,66025.97
2023-05-08T20:09:35.254Z,66040.97
2023-05-08T20:14:40.753Z,66080.78
2023-05-08T20:19:44.866Z,66057.03
2023-05-08T20:24:48.754Z,66035.53
2023-05-08T20:29:54.760Z,66029.72
2023-05-08T20:34:58.851Z,65972.00
2023-05-08T20:40:04.811Z,65978.97
2023-05-08T20:45:10.426Z,65954.78
2023-05-08T20:50:16.473Z,65961.75
2023-05-08T20:55:21.270Z,65982.53
2023-05-08T21:00:26.982Z,66011.69
2023-05-08T21:05:31.118Z,66018.56
2023-05-08T21:10:35.027Z,66007.34
2023-05-08T21:15:40.293Z,66009.47
2023-05-08T21:20:49.650Z,66016.97
2023-05-08T21:25:53.603Z,65982.00
2023-05-08T21:30:58.878Z,65979.94
2023-05-08T21:36:02.789Z,65984.75
2023-05-08T21:41:07.884Z,65969.78
2023-05-08T21:46:13.214Z,65972.53
2023-05-08T21:51:17.609Z,65964.53
2023-05-08T21:56:22.834Z,65984.41
2023-05-08T22:01:28.211Z,65992.25
2023-05-08T22:06:33.071Z,65958.72
2023-05-08T22:11:37.051Z,65976.19
2023-05-08T22:16:42.739Z,65976.47
2023-05-08T22:21:46.944Z,65985.28
2023-05-08T22:26:51.210Z,65968.81
2023-05-08T22:31:56.977Z,65951.50
2023-05-08T22:37:01.065Z,65948.91
2023-05-08T22:42:05.511Z,65952.31
2023-05-08T22:47:11.757Z,65940.88
2023-05-08T22:52:17.114Z,65895.88
2023-05-08T22:57:21.358Z,65843.66
2023-05-08T23:02:32.101Z,65758.50
2023-05-08T23:07:36.453Z,65787.44
2023-05-08T23:12:40.542Z,65759.75
2023-05-08T23:17:46.218Z,65724.94
2023-05-08T23:22:50.228Z,65706.44
2023-05-08T23:27:54.119Z,65715.97
2023-05-08T23:32:59.398Z,65656.69
2023-05-08T23:38:03.435Z,65642.09
2023-05-08T23:43:07.418Z,65624.69
2023-05-08T23:48:12.861Z,65615.72
2023-05-08T23:53:16.696Z,65592.78
2023-05-08T23:58:20.961Z,65627.69
